Rockport, MA (01966)

7:42 AM EDT on September 03, 2015 (GMT -0400)
KMAROCKP3 | | Change Station
CLOSE
Current Station
Personal Weather Station
Location: Rockport, MA
Elevation: 53 ft
Nearby Weather Stations

Elev 53 ft 42.66 °N, 70.61 °W | Updated 6 seconds ago

Clear
Clear
70.7 °F
Feels Like 70.7 °F
N
0.0
Wind Variable Wind from WNW
Gusts 5.0 mph

Today
High -- | Low -- °F
--% Chance of Precip.
Yesterday
High -- | Low -- °F
Precip. -- in
6:09 AM 7:13 PM
Waning Gibbous, 71% visible
Pressure 29.82 in
Visibility 4.0 miles
Clouds Clear
Dew Point 67 °F
Humidity 87%
Rainfall 0.00 in
Snow Depth Not available.
UV 0 out of 12
Pollen 8.60 out of 12
Air Quality Not available.
Flu Activity Not available.
METAR KBVY 031053Z 31003KT 4SM BR CLR 18/17 A2984 RMK AO2 SLP098 T01780167
Pressure 29.82 in
Visibility 4.0 miles
Clouds Clear
Dew Point 67 °F
Humidity 87%
Rainfall 0.00 in
Snow Depth Not available.
UV 0 out of 12
Pollen 8.60 out of 12
Air Quality Not available.
Flu Activity Not available.
METAR KBVY 031053Z 31003KT 4SM BR CLR 18/17 A2984 RMK AO2 SLP098 T01780167

10-Day Weather Forecast

×

Almanac

Astronomy

Sep. 03, 2015 Rise Set
Actual Time
Civil Twilight
Nautical Twilight
Astronomical Twilight
Moon
Length of Visible Light
Length of Day
Tomorrow will be .
, % of the Moon is Illuminated

Today's Extremes

State Highs State Lows

Community

WunderPhotos

Upload Photos

1,851,941 photos uploaded!

WunderBlogs® & News

Nearby

Air Quality

  Air Quality AQ Index Pollutant
Not available.

Snow Depth

Station Depth Elevation

Earthquake Activity

City Distance Mag. Time & Date
Minimum magnitude displayed is 2.5.

Coastal Water Temperatures

Place Temperature

Stations

Nearby Weather Stations

Station Location Temp. Windchill Dew Point Humidity Wind Precip. Elev Updated Type